Time;durP1;ratioP1;P1;durP2;ratioP2;P2;SDS_P1;SDS_P2;PMS_P1;PMS_P2;Temp;Humidity;BMP_temperature;BMP_pressure;BME280_temperature;BME280_humidity;BME280_pressure;Samples;Min_cycle;Max_cycle;Signal;HPM_P1;HPM_P2
2021/11/19 00:00:32;;;;;;;10.15;5.70;;;;;;;;;;5111606;28;20027;-66
2021/11/19 00:02:58;;;;;;;13.75;5.85;;;;;;;;;;5111064;28;20027;-66
2021/11/19 00:05:24;;;;;;;9.75;5.22;;;;;;;;;;5110549;28;20063;-67
2021/11/19 00:07:50;;;;;;;12.00;5.57;;;;;;;;;;5111411;28;20020;-66
2021/11/19 00:10:17;;;;;;;11.60;5.38;;;;;;;;;;5113241;28;20462;-66
2021/11/19 00:12:43;;;;;;;15.50;5.88;;;;;;;;;;5112088;28;20034;-66
2021/11/19 00:15:10;;;;;;;12.52;6.32;;;;;;;;;;5113246;28;20035;-67
2021/11/19 00:17:36;;;;;;;8.95;5.35;;;;;;;;;;5111224;28;20027;-66
2021/11/19 00:20:02;;;;;;;12.55;5.55;;;;;;;;;;5112250;28;20071;-67
2021/11/19 00:22:28;;;;;;;11.77;5.80;;;;;;;;;;5111772;28;20098;-67
2021/11/19 00:24:54;;;;;;;14.77;6.30;;;;;;;;;;5113200;28;20024;-67
2021/11/19 00:27:21;;;;;;;11.27;5.20;;;;;;;;;;5110787;28;20019;-67
2021/11/19 00:29:48;;;;;;;14.68;6.70;;;;;;;;;;5110866;28;20055;-67
2021/11/19 00:32:14;;;;;;;12.68;5.35;;;;;;;;;;5110417;28;20051;-67
2021/11/19 00:34:41;;;;;;;10.77;5.40;;;;;;;;;;5110171;28;20028;-66
2021/11/19 00:37:07;;;;;;;9.93;5.20;;;;;;;;;;5113507;28;20023;-67
2021/11/19 00:39:33;;;;;;;9.63;5.60;;;;;;;;;;5111134;28;20107;-67
2021/11/19 00:42:00;;;;;;;12.27;6.20;;;;;;;;;;5110301;28;20024;-67
2021/11/19 00:44:27;;;;;;;11.80;6.72;;;;;;;;;;5111978;28;20085;-67
2021/11/19 00:46:53;;;;;;;13.13;7.10;;;;;;;;;;5109701;28;20498;-66
2021/11/19 00:49:21;;;;;;;13.73;7.82;;;;;;;;;;5112516;28;20027;-67
2021/11/19 00:51:48;;;;;;;15.63;7.80;;;;;;;;;;5111820;28;20063;-67
2021/11/19 00:54:15;;;;;;;13.00;6.93;;;;;;;;;;5109871;28;20555;-67
2021/11/19 00:56:43;;;;;;;11.40;7.30;;;;;;;;;;5110344;28;20111;-66
2021/11/19 00:59:10;;;;;;;14.02;6.45;;;;;;;;;;5111230;28;20049;-66
2021/11/19 01:01:38;;;;;;;14.23;8.18;;;;;;;;;;5110463;28;20028;-67
2021/11/19 01:04:06;;;;;;;15.18;7.07;;;;;;;;;;5113036;28;20015;-67
2021/11/19 01:06:32;;;;;;;10.95;5.95;;;;;;;;;;5110561;28;20128;-67
2021/11/19 01:08:58;;;;;;;12.23;7.10;;;;;;;;;;5109725;28;20028;-67
2021/11/19 01:11:25;;;;;;;10.48;6.18;;;;;;;;;;5109864;28;20031;-67
2021/11/19 01:13:52;;;;;;;11.63;6.10;;;;;;;;;;5109904;28;20104;-66
2021/11/19 01:16:23;;;;;;;11.60;5.70;;;;;;;;;;5111501;28;20019;-67
2021/11/19 01:18:52;;;;;;;11.10;5.90;;;;;;;;;;5112046;28;20036;-67
2021/11/19 01:21:23;;;;;;;11.98;4.38;;;;;;;;;;5109922;28;20061;-66
2021/11/19 01:23:50;;;;;;;12.45;4.85;;;;;;;;;;5109199;28;20019;-66
2021/11/19 01:26:20;;;;;;;9.98;5.53;;;;;;;;;;5109094;28;20562;-67
2021/11/19 01:28:47;;;;;;;12.75;6.35;;;;;;;;;;5109578;28;20016;-66
2021/11/19 01:31:16;;;;;;;9.82;5.55;;;;;;;;;;5112253;28;20108;-67
2021/11/19 01:33:42;;;;;;;10.07;5.35;;;;;;;;;;5110375;28;20487;-66
2021/11/19 01:36:09;;;;;;;15.30;6.15;;;;;;;;;;5109139;28;20032;-67
2021/11/19 01:38:35;;;;;;;9.65;4.68;;;;;;;;;;5110631;28;20039;-66
2021/11/19 01:41:05;;;;;;;10.77;4.47;;;;;;;;;;5109238;28;20020;-67
2021/11/19 01:43:32;;;;;;;11.82;4.88;;;;;;;;;;5095574;28;20062;-67
2021/11/19 01:45:59;;;;;;;10.32;4.78;;;;;;;;;;5112599;28;20027;-66
2021/11/19 01:48:29;;;;;;;11.57;4.88;;;;;;;;;;5109269;28;20028;-66
2021/11/19 01:50:59;;;;;;;11.23;5.30;;;;;;;;;;5108716;28;20028;-66
2021/11/19 01:53:31;;;;;;;12.10;5.47;;;;;;;;;;5109330;28;20035;-66
2021/11/19 01:56:04;;;;;;;9.82;4.82;;;;;;;;;;5107170;28;20518;-67
2021/11/19 01:58:38;;;;;;;13.13;5.72;;;;;;;;;;5109686;28;20040;-67
2021/11/19 02:01:06;;;;;;;11.85;5.35;;;;;;;;;;5108455;28;20042;-67
2021/11/19 02:03:32;;;;;;;;;;;;;;;;;;5109482;28;20027;-65
2021/11/19 02:06:01;;;;;;;11.07;5.20;;;;;;;;;;5108698;28;19981;-68
2021/11/19 02:08:30;;;;;;;10.00;4.97;;;;;;;;;;5108947;28;20124;-66
2021/11/19 02:11:15;;;;;;;8.75;4.43;;;;;;;;;;5109096;28;20031;-66
2021/11/19 02:13:50;;;;;;;10.52;4.15;;;;;;;;;;5096024;28;20024;-66
2021/11/19 02:16:18;;;;;;;8.30;3.67;;;;;;;;;;5110117;28;20028;-67
2021/11/19 02:18:49;;;;;;;8.05;3.60;;;;;;;;;;5110351;28;20027;-66
2021/11/19 02:21:17;;;;;;;9.23;3.65;;;;;;;;;;5107258;28;20491;-66
2021/11/19 02:23:46;;;;;;;8.10;3.53;;;;;;;;;;5108410;28;20027;-66
2021/11/19 02:26:14;;;;;;;7.72;3.40;;;;;;;;;;5108332;28;20055;-66
2021/11/19 02:28:41;;;;;;;7.95;3.58;;;;;;;;;;5108391;28;20035;-66
2021/11/19 02:31:12;;;;;;;7.75;3.70;;;;;;;;;;5110600;28;20499;-66
2021/11/19 02:33:40;;;;;;;6.22;3.50;;;;;;;;;;5110379;28;20024;-66
2021/11/19 02:36:06;;;;;;;8.80;4.25;;;;;;;;;;5106314;28;20031;-66
2021/11/19 02:38:36;;;;;;;9.43;4.97;;;;;;;;;;5109342;28;20046;-65
2021/11/19 02:41:02;;;;;;;11.13;4.20;;;;;;;;;;5109960;28;20038;-68
2021/11/19 02:43:34;;;;;;;8.35;3.80;;;;;;;;;;5108339;28;20020;-66
2021/11/19 02:46:00;;;;;;;7.43;3.78;;;;;;;;;;5105622;28;20024;-66
2021/11/19 02:48:29;;;;;;;7.13;3.63;;;;;;;;;;5107389;28;20023;-66
2021/11/19 02:50:56;;;;;;;7.25;4.03;;;;;;;;;;5107391;28;20432;-66
2021/11/19 02:53:22;;;;;;;8.68;4.45;;;;;;;;;;5109180;28;20031;-66
2021/11/19 02:55:49;;;;;;;9.52;4.57;;;;;;;;;;5107431;28;20039;-66
2021/11/19 02:58:18;;;;;;;9.93;4.90;;;;;;;;;;5110068;28;20035;-67
2021/11/19 03:00:47;;;;;;;7.93;3.75;;;;;;;;;;5108565;28;20032;-67
2021/11/19 03:03:13;;;;;;;8.27;4.32;;;;;;;;;;5107695;28;20051;-67
2021/11/19 03:05:39;;;;;;;10.38;4.10;;;;;;;;;;5106521;28;20421;-67
2021/11/19 03:08:05;;;;;;;6.07;3.15;;;;;;;;;;5109653;28;20088;-67
2021/11/19 03:10:42;;;;;;;7.72;3.08;;;;;;;;;;5107134;28;20020;-67
2021/11/19 03:13:08;;;;;;;6.53;3.17;;;;;;;;;;5114279;28;20031;-67
2021/11/19 03:15:36;;;;;;;11.43;3.70;;;;;;;;;;5112446;28;20074;-67
2021/11/19 03:18:03;;;;;;;6.90;3.08;;;;;;;;;;5110906;28;20027;-67
2021/11/19 03:20:29;;;;;;;5.45;2.97;;;;;;;;;;5108867;28;20457;-67
2021/11/19 03:22:55;;;;;;;11.95;3.75;;;;;;;;;;5113952;28;20046;-67
2021/11/19 03:25:23;;;;;;;6.07;2.63;;;;;;;;;;5111990;28;20495;-67
2021/11/19 03:27:49;;;;;;;7.63;2.80;;;;;;;;;;5113498;28;20039;-67
2021/11/19 03:30:16;;;;;;;8.18;3.47;;;;;;;;;;5113068;28;20028;-66
2021/11/19 03:32:42;;;;;;;8.05;3.50;;;;;;;;;;5110991;28;20074;-67
2021/11/19 03:35:14;;;;;;;8.35;3.17;;;;;;;;;;5110673;28;20070;-67
2021/11/19 03:37:40;;;;;;;9.05;3.17;;;;;;;;;;5112270;28;20031;-66
2021/11/19 03:40:06;;;;;;;4.90;2.72;;;;;;;;;;5114171;28;20126;-65
2021/11/19 03:42:32;;;;;;;6.28;3.13;;;;;;;;;;5113560;28;20382;-67
2021/11/19 03:44:59;;;;;;;6.35;2.90;;;;;;;;;;5113274;28;20031;-67
2021/11/19 03:47:27;;;;;;;7.03;3.03;;;;;;;;;;5112603;28;20055;-67
2021/11/19 03:49:54;;;;;;;7.57;3.13;;;;;;;;;;5112090;28;20023;-67
2021/11/19 03:52:23;;;;;;;9.80;3.58;;;;;;;;;;5112555;28;20098;-67
2021/11/19 03:54:50;;;;;;;8.57;3.22;;;;;;;;;;5113205;28;20031;-67
2021/11/19 03:57:17;;;;;;;6.15;2.90;;;;;;;;;;5110660;28;20103;-67
2021/11/19 03:59:43;;;;;;;7.57;3.10;;;;;;;;;;5109325;28;20089;-67
2021/11/19 04:02:10;;;;;;;6.35;2.78;;;;;;;;;;5110612;28;20094;-67
2021/11/19 04:04:37;;;;;;;9.30;3.20;;;;;;;;;;5113020;28;20059;-67
2021/11/19 04:07:04;;;;;;;8.70;3.97;;;;;;;;;;5113631;28;20027;-67
2021/11/19 04:09:31;;;;;;;7.07;3.17;;;;;;;;;;5112473;28;20034;-67
2021/11/19 04:11:58;;;;;;;9.18;3.42;;;;;;;;;;5112595;28;20121;-67
2021/11/19 04:14:24;;;;;;;5.38;2.97;;;;;;;;;;5110249;28;20473;-66
2021/11/19 04:16:51;;;;;;;6.65;2.85;;;;;;;;;;5111894;28;20538;-67
2021/11/19 04:19:18;;;;;;;6.70;2.70;;;;;;;;;;5112455;28;20039;-67
2021/11/19 04:21:44;;;;;;;5.72;2.72;;;;;;;;;;5110920;28;20066;-67
2021/11/19 04:24:12;;;;;;;5.88;2.83;;;;;;;;;;5111347;28;20039;-65
2021/11/19 04:26:38;;;;;;;5.55;2.60;;;;;;;;;;5110751;28;20031;-65
2021/11/19 04:29:05;;;;;;;6.55;2.78;;;;;;;;;;5109877;28;20485;-65
2021/11/19 04:31:32;;;;;;;5.07;2.53;;;;;;;;;;5112227;28;20036;-64
2021/11/19 04:33:59;;;;;;;8.15;2.72;;;;;;;;;;5111717;28;20031;-65
2021/11/19 04:36:25;;;;;;;102.80;5.57;;;;;;;;;;5109128;28;20030;-65
2021/11/19 04:38:51;;;;;;;6.03;2.63;;;;;;;;;;5111260;28;20028;-64
2021/11/19 04:41:18;;;;;;;9.40;3.00;;;;;;;;;;5109989;28;20016;-65
2021/11/19 04:43:44;;;;;;;10.65;3.92;;;;;;;;;;5106976;28;20024;-65
2021/11/19 04:46:10;;;;;;;5.82;2.90;;;;;;;;;;5108773;28;20028;-63
2021/11/19 04:48:36;;;;;;;5.38;2.92;;;;;;;;;;5108313;28;20027;-65
2021/11/19 04:51:05;;;;;;;5.93;2.00;;;;;;;;;;5109338;28;20102;-65
2021/11/19 04:53:31;;;;;;;5.80;2.50;;;;;;;;;;5110205;28;20016;-65
2021/11/19 04:55:58;;;;;;;6.80;2.83;;;;;;;;;;5106177;28;20521;-65
2021/11/19 04:58:24;;;;;;;5.47;2.67;;;;;;;;;;5108784;28;20449;-66
2021/11/19 05:00:52;;;;;;;3.95;2.00;;;;;;;;;;5111630;28;20063;-65
2021/11/19 05:03:18;;;;;;;5.72;2.20;;;;;;;;;;5108775;28;20038;-65
2021/11/19 05:05:45;;;;;;;6.22;2.28;;;;;;;;;;5109977;28;20023;-65
2021/11/19 05:08:12;;;;;;;4.13;2.20;;;;;;;;;;5111179;28;20045;-65
2021/11/19 05:10:39;;;;;;;4.75;2.05;;;;;;;;;;5111301;28;20030;-65
2021/11/19 05:13:06;;;;;;;6.53;2.67;;;;;;;;;;5111789;28;20024;-66
2021/11/19 05:15:32;;;;;;;4.95;2.70;;;;;;;;;;5109522;28;20064;-66
2021/11/19 05:17:58;;;;;;;5.18;2.20;;;;;;;;;;5108942;28;20072;-66
2021/11/19 05:20:25;;;;;;;3.83;1.92;;;;;;;;;;5109352;28;20050;-65
2021/11/19 05:22:52;;;;;;;4.32;2.15;;;;;;;;;;5111855;28;20486;-65
2021/11/19 05:25:19;;;;;;;4.70;2.35;;;;;;;;;;5111139;28;20066;-66
2021/11/19 05:27:45;;;;;;;3.35;1.92;;;;;;;;;;5110579;28;20386;-66
2021/11/19 05:30:12;;;;;;;5.18;2.85;;;;;;;;;;5108420;28;20032;-66
2021/11/19 05:32:38;;;;;;;4.95;2.75;;;;;;;;;;5108572;28;20089;-65
2021/11/19 05:35:05;;;;;;;4.05;2.20;;;;;;;;;;5109594;28;20028;-65
2021/11/19 05:37:31;;;;;;;8.45;2.60;;;;;;;;;;5110859;28;20036;-65
2021/11/19 05:39:57;;;;;;;5.18;2.55;;;;;;;;;;5111653;28;20041;-66
2021/11/19 05:42:23;;;;;;;3.92;2.35;;;;;;;;;;5110352;28;20043;-65
2021/11/19 05:44:49;;;;;;;4.57;2.15;;;;;;;;;;5108608;28;20036;-65
2021/11/19 05:47:15;;;;;;;4.78;2.17;;;;;;;;;;5108288;28;20030;-65
2021/11/19 05:49:42;;;;;;;5.70;2.30;;;;;;;;;;5108463;28;20032;-65
2021/11/19 05:52:09;;;;;;;4.40;2.17;;;;;;;;;;5111581;28;20026;-66
2021/11/19 05:54:35;;;;;;;5.15;2.30;;;;;;;;;;5111369;28;20440;-66
2021/11/19 05:57:03;;;;;;;4.07;2.30;;;;;;;;;;5108626;28;20051;-66
2021/11/19 05:59:29;;;;;;;3.60;1.80;;;;;;;;;;5108054;28;20035;-66
2021/11/19 06:01:56;;;;;;;4.35;2.20;;;;;;;;;;5108434;28;20123;-66
2021/11/19 06:04:22;;;;;;;5.72;2.10;;;;;;;;;;5109038;28;20186;-66
2021/11/19 06:06:48;;;;;;;4.03;2.20;;;;;;;;;;5112267;28;20031;-66
2021/11/19 06:09:18;;;;;;;6.28;2.22;;;;;;;;;;5108995;28;20042;-66
2021/11/19 06:11:49;;;;;;;7.15;2.97;;;;;;;;;;5110463;28;20020;-66
2021/11/19 06:14:19;;;;;;;5.43;2.50;;;;;;;;;;5107579;28;20529;-66
2021/11/19 06:16:48;;;;;;;5.07;2.30;;;;;;;;;;5108197;28;20471;-66
2021/11/19 06:19:18;;;;;;;4.65;2.03;;;;;;;;;;5109857;28;20043;-66
2021/11/19 06:21:47;;;;;;;8.63;2.40;;;;;;;;;;5109311;28;20434;-65
2021/11/19 06:24:15;;;;;;;4.88;1.88;;;;;;;;;;5109714;28;20050;-65
2021/11/19 06:26:42;;;;;;;8.18;2.20;;;;;;;;;;5108241;28;20046;-65
2021/11/19 06:29:08;;;;;;;2.75;1.77;;;;;;;;;;5107393;28;20055;-65
2021/11/19 06:31:36;;;;;;;4.75;2.10;;;;;;;;;;5108352;28;20078;-65
2021/11/19 06:34:02;;;;;;;5.53;2.50;;;;;;;;;;5110946;28;20487;-65
2021/11/19 06:36:29;;;;;;;4.18;2.22;;;;;;;;;;5109210;28;20028;-65
2021/11/19 06:38:55;;;;;;;7.53;2.20;;;;;;;;;;5109462;28;20490;-65
2021/11/19 06:41:21;;;;;;;6.47;2.15;;;;;;;;;;5107986;28;20030;-65
2021/11/19 06:43:48;;;;;;;4.78;2.53;;;;;;;;;;5105676;28;20032;-65
2021/11/19 06:46:16;;;;;;;5.40;2.10;;;;;;;;;;5109323;28;20091;-65
2021/11/19 06:48:42;;;;;;;4.47;1.92;;;;;;;;;;5108553;28;20046;-65
2021/11/19 06:51:09;;;;;;;3.83;2.20;;;;;;;;;;5107489;28;20023;-65
2021/11/19 06:53:35;;;;;;;5.18;2.00;;;;;;;;;;5109014;28;20024;-65
2021/11/19 06:56:01;;;;;;;5.43;1.63;;;;;;;;;;5107894;28;20031;-65
2021/11/19 06:58:27;;;;;;;3.90;2.10;;;;;;;;;;5108642;28;20036;-65
2021/11/19 07:00:54;;;;;;;3.70;2.15;;;;;;;;;;5109683;28;20073;-65
2021/11/19 07:03:21;;;;;;;8.52;3.00;;;;;;;;;;5106642;28;20123;-65
2021/11/19 07:05:47;;;;;;;5.13;2.97;;;;;;;;;;5105232;28;20513;-65
2021/11/19 07:08:14;;;;;;;4.57;2.30;;;;;;;;;;5109099;28;20032;-65
2021/11/19 07:10:42;;;;;;;5.38;2.55;;;;;;;;;;5108908;28;20141;-65
2021/11/19 07:13:11;;;;;;;4.22;2.72;;;;;;;;;;5109685;28;20036;-65
2021/11/19 07:15:37;;;;;;;6.32;3.35;;;;;;;;;;5108353;28;20039;-65
2021/11/19 07:18:03;;;;;;;7.82;2.42;;;;;;;;;;5106984;28;20039;-65
2021/11/19 07:20:29;;;;;;;4.72;2.50;;;;;;;;;;5105940;28;20524;-65
2021/11/19 07:22:57;;;;;;;4.05;2.60;;;;;;;;;;5108409;28;20509;-65
2021/11/19 07:25:24;;;;;;;5.40;2.65;;;;;;;;;;5108269;28;20028;-65
2021/11/19 07:27:54;;;;;;;5.22;2.30;;;;;;;;;;5109923;28;20375;-65
2021/11/19 07:30:22;;;;;;;4.35;2.22;;;;;;;;;;5106330;28;20110;-65
2021/11/19 07:32:48;;;;;;;4.15;2.50;;;;;;;;;;5107543;28;20024;-65
2021/11/19 07:35:15;;;;;;;3.13;1.60;;;;;;;;;;5107807;28;20019;-65
2021/11/19 07:37:41;;;;;;;7.85;1.83;;;;;;;;;;5099998;28;20083;-65
2021/11/19 07:40:08;;;;;;;3.85;1.95;;;;;;;;;;5109535;28;20035;-66
2021/11/19 07:42:35;;;;;;;5.28;2.60;;;;;;;;;;5110216;28;20162;-66
2021/11/19 07:45:01;;;;;;;6.43;2.28;;;;;;;;;;5105904;28;20023;-66
2021/11/19 07:47:27;;;;;;;5.53;2.30;;;;;;;;;;5103522;28;20038;-66
2021/11/19 07:49:53;;;;;;;5.82;2.40;;;;;;;;;;5106467;28;20402;-66
2021/11/19 07:52:19;;;;;;;3.78;2.20;;;;;;;;;;5108746;28;20038;-66
2021/11/19 07:54:45;;;;;;;4.38;1.90;;;;;;;;;;5108856;28;20035;-66
2021/11/19 07:57:11;;;;;;;3.45;2.00;;;;;;;;;;5110900;28;20028;-66
2021/11/19 07:59:38;;;;;;;2.45;1.55;;;;;;;;;;5110280;28;20110;-66
2021/11/19 08:02:04;;;;;;;4.70;1.80;;;;;;;;;;5111170;28;20023;-67
2021/11/19 08:04:31;;;;;;;4.60;1.92;;;;;;;;;;5111824;28;20050;-67
2021/11/19 08:06:58;;;;;;;2.47;1.50;;;;;;;;;;5114441;28;20012;-67
2021/11/19 08:09:24;;;;;;;3.33;1.65;;;;;;;;;;5104626;28;20478;-67
2021/11/19 08:11:50;;;;;;;2.97;1.70;;;;;;;;;;5110597;28;20035;-67
2021/11/19 08:14:17;;;;;;;3.10;2.00;;;;;;;;;;5113236;28;20035;-66
2021/11/19 08:16:48;;;;;;;7.40;4.07;;;;;;;;;;5111231;28;20425;-66
2021/11/19 08:19:20;;;;;;;10.20;3.72;;;;;;;;;;5112903;28;20076;-67
2021/11/19 08:21:46;;;;;;;5.05;2.63;;;;;;;;;;5101735;28;20027;-67
2021/11/19 08:24:13;;;;;;;10.73;2.75;;;;;;;;;;5108421;28;20120;-67
2021/11/19 08:26:42;;;;;;;5.13;2.50;;;;;;;;;;5110519;28;20027;-66
2021/11/19 08:29:10;;;;;;;5.13;2.47;;;;;;;;;;5110964;28;20040;-66
2021/11/19 08:31:36;;;;;;;5.38;2.38;;;;;;;;;;5110343;28;20050;-66
2021/11/19 08:34:02;;;;;;;4.60;2.70;;;;;;;;;;5113558;28;20030;-66
2021/11/19 08:36:29;;;;;;;4.85;2.70;;;;;;;;;;5105031;28;20028;-66
2021/11/19 08:38:55;;;;;;;5.25;2.75;;;;;;;;;;5110415;28;20042;-66
2021/11/19 08:41:21;;;;;;;4.35;2.00;;;;;;;;;;5109223;28;20178;-66
2021/11/19 08:43:48;;;;;;;4.30;2.47;;;;;;;;;;5112474;28;20490;-66
2021/11/19 08:46:26;;;;;;;5.45;2.60;;;;;;;;;;5112330;28;20027;-66
2021/11/19 08:48:52;;;;;;;6.03;2.50;;;;;;;;;;5112865;28;20031;-66
2021/11/19 08:51:20;;;;;;;4.28;2.28;;;;;;;;;;5110565;28;20024;-66
2021/11/19 08:53:46;;;;;;;;;;;;;;;;;;5108923;28;20822;-66
2021/11/19 08:56:12;;;;;;;5.07;2.00;;;;;;;;;;5098802;28;19958;-66
2021/11/19 08:58:41;;;;;;;3.08;2.10;;;;;;;;;;5109555;28;20102;-66
2021/11/19 09:01:08;;;;;;;2.42;1.70;;;;;;;;;;5113458;28;20046;-66
2021/11/19 09:03:34;;;;;;;4.35;2.17;;;;;;;;;;5100914;28;20410;-66
2021/11/19 09:06:01;;;;;;;3.50;1.95;;;;;;;;;;5109292;28;20024;-67
2021/11/19 09:08:29;;;;;;;5.22;2.13;;;;;;;;;;5109866;28;20403;-67
2021/11/19 09:10:56;;;;;;;2.95;1.98;;;;;;;;;;5109665;28;20031;-66
2021/11/19 09:13:22;;;;;;;3.03;1.73;;;;;;;;;;5107537;28;20019;-67
2021/11/19 09:15:48;;;;;;;4.60;1.80;;;;;;;;;;5092720;28;20027;-67
2021/11/19 09:18:24;;;;;;;3.60;1.70;;;;;;;;;;5109684;28;20114;-66
2021/11/19 09:20:59;;;;;;;5.38;1.88;;;;;;;;;;5110084;28;20058;-67
2021/11/19 09:23:27;;;;;;;4.15;1.92;;;;;;;;;;5109497;28;20038;-66
2021/11/19 09:25:55;;;;;;;3.85;1.88;;;;;;;;;;5111132;28;20024;-66
2021/11/19 09:28:23;;;;;;;3.35;1.90;;;;;;;;;;5111278;28;20038;-66
2021/11/19 09:30:51;;;;;;;3.88;1.90;;;;;;;;;;5111573;28;20609;-67
2021/11/19 09:33:18;;;;;;;6.82;2.40;;;;;;;;;;5111652;28;20028;-67
2021/11/19 09:35:44;;;;;;;5.72;2.60;;;;;;;;;;5108795;28;20046;-67
2021/11/19 09:38:11;;;;;;;5.75;2.85;;;;;;;;;;5109245;28;20023;-67
2021/11/19 09:40:39;;;;;;;4.70;2.50;;;;;;;;;;5109794;28;20038;-67
2021/11/19 09:43:11;;;;;;;12.30;4.00;;;;;;;;;;5112294;28;20031;-67
2021/11/19 09:45:47;;;;;;;7.70;3.20;;;;;;;;;;5110428;28;20050;-67
2021/11/19 09:48:22;;;;;;;7.65;2.97;;;;;;;;;;5108814;28;20490;-67
2021/11/19 09:50:57;;;;;;;7.43;3.40;;;;;;;;;;5108879;28;20032;-67
2021/11/19 09:53:41;;;;;;;4.68;2.83;;;;;;;;;;5109085;28;20054;-67
2021/11/19 09:56:15;;;;;;;4.63;2.92;;;;;;;;;;5109159;28;20046;-66
2021/11/19 09:58:47;;;;;;;5.07;2.28;;;;;;;;;;5109245;28;20132;-66
2021/11/19 10:01:32;;;;;;;5.75;2.63;;;;;;;;;;5111461;28;20032;-67
2021/11/19 10:04:00;;;;;;;5.43;2.78;;;;;;;;;;5111563;28;20019;-67
2021/11/19 10:06:35;;;;;;;5.53;2.40;;;;;;;;;;5108810;28;20038;-67
2021/11/19 10:09:14;;;;;;;6.22;2.38;;;;;;;;;;5107755;28;20024;-66
2021/11/19 10:11:42;;;;;;;4.55;2.35;;;;;;;;;;5108240;28;20027;-67
2021/11/19 10:14:23;;;;;;;7.22;2.22;;;;;;;;;;5108923;28;20455;-66
2021/11/19 10:17:04;;;;;;;7.55;2.50;;;;;;;;;;5107077;28;20420;-66
2021/11/19 10:19:30;;;;;;;4.13;2.25;;;;;;;;;;5109396;28;20088;-66
2021/11/19 10:22:11;;;;;;;5.55;2.50;;;;;;;;;;5111284;28;20428;-66
2021/11/19 10:24:40;;;;;;;4.07;2.05;;;;;;;;;;5110994;28;20031;-66
2021/11/19 10:27:09;;;;;;;4.82;2.42;;;;;;;;;;5108533;28;20150;-66
2021/11/19 10:29:40;;;;;;;5.97;2.63;;;;;;;;;;5108590;28;20020;-66
2021/11/19 10:32:07;;;;;;;3.78;2.08;;;;;;;;;;5108615;28;20074;-66
2021/11/19 10:34:42;;;;;;;3.60;2.15;;;;;;;;;;5106656;28;20019;-66
2021/11/19 10:37:19;;;;;;;2.38;1.55;;;;;;;;;;5107800;28;20165;-66
2021/11/19 10:39:59;;;;;;;5.15;1.90;;;;;;;;;;5110021;28;20023;-66
2021/11/19 10:42:28;;;;;;;5.47;1.92;;;;;;;;;;5107992;28;20029;-66
2021/11/19 10:44:57;;;;;;;3.38;1.90;;;;;;;;;;5106335;28;20432;-67
2021/11/19 10:47:42;;;;;;;4.22;1.90;;;;;;;;;;5102082;28;20099;-66
2021/11/19 10:50:20;;;;;;;3.13;1.58;;;;;;;;;;5108437;28;20027;-67
2021/11/19 10:52:49;;;;;;;3.55;1.50;;;;;;;;;;5108593;28;20020;-66
2021/11/19 10:55:15;;;;;;;3.85;1.70;;;;;;;;;;5109657;28;20016;-66
2021/11/19 10:57:53;;;;;;;3.20;1.85;;;;;;;;;;5108743;28;20024;-67
2021/11/19 11:00:19;;;;;;;5.45;2.58;;;;;;;;;;5108289;28;20043;-66
2021/11/19 11:02:56;;;;;;;8.18;3.00;;;;;;;;;;5107934;28;20020;-66
2021/11/19 11:05:22;;;;;;;3.97;1.90;;;;;;;;;;5106659;28;20031;-65
2021/11/19 11:08:01;;;;;;;4.10;1.70;;;;;;;;;;5101093;28;20035;-65
2021/11/19 11:10:27;;;;;;;;;;;;;;;;;;5108952;28;20042;-65
2021/11/19 11:12:53;;;;;;;4.75;1.35;;;;;;;;;;5110534;28;20002;-65
2021/11/19 11:15:31;;;;;;;3.50;1.70;;;;;;;;;;5107829;28;20030;-65
2021/11/19 11:17:57;;;;;;;4.10;1.58;;;;;;;;;;5107360;28;20390;-65
2021/11/19 11:20:29;;;;;;;1.95;1.10;;;;;;;;;;5107643;28;20035;-66
2021/11/19 11:22:56;;;;;;;2.17;1.25;;;;;;;;;;5091018;28;20027;-66
2021/11/19 11:25:27;;;;;;;1.85;0.90;;;;;;;;;;5097975;28;20035;-65
2021/11/19 11:28:00;;;;;;;0.98;0.77;;;;;;;;;;5104756;28;20020;-65
2021/11/19 11:30:47;;;;;;;3.30;1.05;;;;;;;;;;5108804;28;20141;-65
2021/11/19 11:33:22;;;;;;;2.80;1.10;;;;;;;;;;5104600;28;20529;-66
2021/11/19 11:35:50;;;;;;;6.20;1.52;;;;;;;;;;5093905;28;20467;-64
2021/11/19 11:38:22;;;;;;;2.42;1.13;;;;;;;;;;5099998;28;20032;-63
2021/11/19 11:40:51;;;;;;;1.50;1.00;;;;;;;;;;5110212;28;20032;-63
2021/11/19 11:43:30;;;;;;;4.07;1.25;;;;;;;;;;5111686;28;20023;-63
2021/11/19 11:45:58;;;;;;;3.30;1.30;;;;;;;;;;5080036;28;20020;-64
2021/11/19 11:48:27;;;;;;;3.20;1.20;;;;;;;;;;5106363;28;20027;-64
2021/11/19 11:50:59;;;;;;;1.40;0.90;;;;;;;;;;5107538;28;20031;-64
2021/11/19 11:53:33;;;;;;;1.25;0.90;;;;;;;;;;5109291;28;20092;-64
2021/11/19 11:56:14;;;;;;;2.83;0.80;;;;;;;;;;5104497;28;20382;-64
2021/11/19 11:58:46;;;;;;;1.17;0.80;;;;;;;;;;5092582;28;20380;-64
2021/11/19 12:01:12;;;;;;;1.58;0.77;;;;;;;;;;5111276;28;20034;-64
2021/11/19 12:04:01;;;;;;;1.77;0.90;;;;;;;;;;5110768;28;20483;-64
2021/11/19 12:06:31;;;;;;;1.50;0.80;;;;;;;;;;5055351;28;20042;-64
2021/11/19 12:09:10;;;;;;;2.00;0.93;;;;;;;;;;5098868;28;20024;-64
2021/11/19 12:11:36;;;;;;;1.67;1.00;;;;;;;;;;5104475;28;20484;-63
2021/11/19 12:14:02;;;;;;;3.63;1.20;;;;;;;;;;5106057;28;20046;-63
2021/11/19 12:16:49;;;;;;;1.65;0.95;;;;;;;;;;5111473;28;20107;-62
2021/11/19 12:19:31;;;;;;;2.10;0.90;;;;;;;;;;5110443;28;20031;-63
2021/11/19 12:22:04;;;;;;;2.17;0.88;;;;;;;;;;5114390;28;20020;-64
2021/11/19 12:24:33;;;;;;;3.50;1.17;;;;;;;;;;5112853;28;20051;-64
2021/11/19 12:27:05;;;;;;;2.42;1.10;;;;;;;;;;5110484;28;20027;-63
2021/11/19 12:29:44;;;;;;;1.63;0.82;;;;;;;;;;5109986;28;20459;-63
2021/11/19 12:32:32;;;;;;;2.90;1.30;;;;;;;;;;5110703;28;20048;-64
2021/11/19 12:34:58;;;;;;;;;;;;;;;;;;5106823;28;20030;-62
2021/11/19 12:37:36;;;;;;;3.15;1.58;;;;;;;;;;5112329;28;20006;-66
2021/11/19 12:40:10;;;;;;;3.20;1.42;;;;;;;;;;5109914;28;20032;-65
2021/11/19 12:42:41;;;;;;;2.17;1.30;;;;;;;;;;5109192;28;20038;-65
2021/11/19 12:45:24;;;;;;;2.88;1.33;;;;;;;;;;5110364;28;20032;-65
2021/11/19 12:48:22;;;;;;;1.95;1.08;;;;;;;;;;5110391;28;20020;-65
2021/11/19 12:50:48;;;;;;;2.78;1.50;;;;;;;;;;5110015;28;20066;-65
2021/11/19 12:53:32;;;;;;;5.35;1.30;;;;;;;;;;5109755;28;20026;-65
2021/11/19 12:56:05;;;;;;;1.52;1.00;;;;;;;;;;5110450;28;20027;-65
2021/11/19 12:58:36;;;;;;;2.00;1.02;;;;;;;;;;5110442;28;20057;-65
2021/11/19 13:01:09;;;;;;;1.58;1.10;;;;;;;;;;5109638;28;20026;-65
2021/11/19 13:03:54;;;;;;;6.85;1.73;;;;;;;;;;5110628;28;20022;-65
2021/11/19 13:06:27;;;;;;;2.03;1.10;;;;;;;;;;5109916;28;20023;-65
2021/11/19 13:08:55;;;;;;;3.08;1.38;;;;;;;;;;5109854;28;20019;-65
2021/11/19 13:11:37;;;;;;;4.63;1.52;;;;;;;;;;5110183;28;20080;-66
2021/11/19 13:14:12;;;;;;;1.65;1.00;;;;;;;;;;5109737;28;20131;-66
2021/11/19 13:16:39;;;;;;;4.68;1.58;;;;;;;;;;5094502;28;20024;-66
2021/11/19 13:19:25;;;;;;;3.80;1.27;;;;;;;;;;5112547;28;20062;-66
2021/11/19 13:21:52;;;;;;;4.05;1.27;;;;;;;;;;5111944;28;20023;-65
2021/11/19 13:24:27;;;;;;;3.22;1.52;;;;;;;;;;5109572;28;20028;-65
2021/11/19 13:27:16;;;;;;;3.72;1.65;;;;;;;;;;5109313;28;20031;-66
2021/11/19 13:29:54;;;;;;;6.43;1.73;;;;;;;;;;5109551;28;20032;-65
2021/11/19 13:32:41;;;;;;;;;;;;;;;;;;5109774;28;20395;-65
2021/11/19 13:35:35;;;;;;;4.97;1.50;;;;;;;;;;5108818;28;20048;-65
2021/11/19 13:38:01;;;;;;;3.28;1.73;;;;;;;;;;5097228;28;20029;-65
2021/11/19 13:40:33;;;;;;;3.55;1.65;;;;;;;;;;5110343;28;20039;-65
2021/11/19 13:43:05;;;;;;;4.45;2.28;;;;;;;;;;5112739;28;20023;-66
2021/11/19 13:45:43;;;;;;;3.83;1.83;;;;;;;;;;5111746;28;20036;-65
2021/11/19 13:48:12;;;;;;;3.40;1.75;;;;;;;;;;5102385;28;20213;-66
2021/11/19 13:50:45;;;;;;;6.40;1.60;;;;;;;;;;5106852;28;20467;-66
2021/11/19 13:53:21;;;;;;;3.55;1.73;;;;;;;;;;5108916;28;20486;-66
2021/11/19 13:55:47;;;;;;;2.67;1.45;;;;;;;;;;5109413;28;20030;-67
2021/11/19 13:58:31;;;;;;;4.60;1.80;;;;;;;;;;5111022;28;20042;-66
2021/11/19 14:01:16;;;;;;;2.65;1.45;;;;;;;;;;5111752;28;20067;-66
2021/11/19 14:03:42;;;;;;;2.08;1.25;;;;;;;;;;5112405;28;20032;-66
2021/11/19 14:06:19;;;;;;;2.42;1.30;;;;;;;;;;5109087;28;20019;-65
2021/11/19 14:08:54;;;;;;;2.47;1.15;;;;;;;;;;5108878;28;20066;-66
2021/11/19 14:11:21;;;;;;;2.03;1.30;;;;;;;;;;5108684;28;20049;-66
2021/11/19 14:13:48;;;;;;;1.98;1.23;;;;;;;;;;5108818;28;20024;-67
2021/11/19 14:16:25;;;;;;;4.90;1.38;;;;;;;;;;5111072;28;20433;-66
2021/11/19 14:19:13;;;;;;;19.30;11.60;;;;;;;;;;5107587;28;20157;-66
2021/11/19 14:21:58;;;;;;;9.75;4.93;;;;;;;;;;5111755;28;20058;-66
2021/11/19 14:24:30;;;;;;;4.50;2.22;;;;;;;;;;5108159;28;20020;-66
2021/11/19 14:27:08;;;;;;;5.13;2.35;;;;;;;;;;5108751;28;20132;-66
2021/11/19 14:29:38;;;;;;;7.65;3.60;;;;;;;;;;5100648;28;20054;-66
2021/11/19 14:32:06;;;;;;;4.78;2.97;;;;;;;;;;5108656;28;20043;-67
2021/11/19 14:34:35;;;;;;;4.10;2.05;;;;;;;;;;5109264;28;20032;-66
2021/11/19 14:37:01;;;;;;;9.00;5.75;;;;;;;;;;5107332;28;20055;-66
2021/11/19 14:39:36;;;;;;;6.20;3.63;;;;;;;;;;5107827;28;20070;-66
2021/11/19 14:42:05;;;;;;;3.90;2.33;;;;;;;;;;5108168;28;20055;-66
2021/11/19 14:44:34;;;;;;;3.78;2.03;;;;;;;;;;5108309;28;20027;-66
2021/11/19 14:47:02;;;;;;;5.30;3.10;;;;;;;;;;5108600;28;20027;-66
2021/11/19 14:49:33;;;;;;;4.68;1.98;;;;;;;;;;5108566;28;20043;-66
2021/11/19 14:52:11;;;;;;;8.10;2.78;;;;;;;;;;5111725;28;20023;-66
2021/11/19 14:54:40;;;;;;;5.60;2.22;;;;;;;;;;5110504;28;20032;-66
2021/11/19 14:57:06;;;;;;;;;;;;;;;;;;5108415;28;20020;-65